Time;durP1;ratioP1;P1;durP2;ratioP2;P2;SDS_P1;SDS_P2;PMS_P1;PMS_P2;Temp;Humidity;BMP_temperature;BMP_pressure;BME280_temperature;BME280_humidity;BME280_pressure;Samples;Min_cycle;Max_cycle;Signal;HPM_P1;HPM_P2
2023/06/26 00:00:33;;;;;;;8.80;5.33;;;;;;;;;;5057204;28;20499;-86
2023/06/26 00:02:58;;;;;;;13.37;5.30;;;18.30;99.90;;;;;;5058437;28;20176;-88
2023/06/26 00:05:24;;;;;;;7.63;5.00;;;;;;;;;;5056106;28;20486;-88
2023/06/26 00:07:51;;;;;;;9.73;6.40;;;18.10;99.90;;;;;;5055808;28;20275;-87
2023/06/26 00:10:17;;;;;;;9.10;6.00;;;;;;;;;;5052343;28;20459;-81
2023/06/26 00:12:42;;;;;;;8.30;5.67;;;18.00;99.90;;;;;;5062322;28;20920;-82
2023/06/26 00:15:08;;;;;;;7.13;4.80;;;18.00;99.90;;;;;;5046004;28;20452;-84
2023/06/26 00:17:36;;;;;;;9.00;5.60;;;18.00;99.90;;;;;;5049579;28;20193;-83
2023/06/26 00:20:03;;;;;;;11.30;5.90;;;18.00;99.90;;;;;;5049054;28;21085;-83
2023/06/26 00:22:28;;;;;;;9.43;5.20;;;18.00;99.90;;;;;;5048246;28;21170;-83
2023/06/26 00:24:54;;;;;;;8.00;4.93;;;18.10;99.90;;;;;;5049081;28;20438;-81
2023/06/26 00:27:20;;;;;;;10.50;5.97;;;18.10;99.90;;;;;;5070897;28;20301;-85
2023/06/26 00:29:46;;;;;;;7.93;6.17;;;18.10;99.90;;;;;;5055127;28;20897;-86
2023/06/26 00:32:11;;;;;;;9.43;6.23;;;18.10;99.90;;;;;;5054547;28;20165;-83
2023/06/26 00:34:37;;;;;;;7.53;5.50;;;18.00;99.90;;;;;;5054682;28;20418;-81
2023/06/26 00:37:02;;;;;;;10.47;5.93;;;18.00;99.90;;;;;;5048048;28;20189;-87
2023/06/26 00:39:28;;;;;;;7.13;5.27;;;18.00;99.90;;;;;;5053281;28;20181;-85
2023/06/26 00:41:54;;;;;;;7.70;4.93;;;18.00;99.90;;;;;;5054018;28;20172;-83
2023/06/26 00:44:19;;;;;;;7.30;5.10;;;18.00;99.90;;;;;;5052198;28;20272;-83
2023/06/26 00:46:45;;;;;;;9.90;5.40;;;18.00;99.90;;;;;;5048353;28;21099;-85
2023/06/26 00:49:11;;;;;;;9.67;6.77;;;18.00;99.90;;;;;;5054669;28;20227;-84
2023/06/26 00:51:36;;;;;;;8.40;5.23;;;18.00;99.90;;;;;;5059935;28;20200;-84
2023/06/26 00:54:02;;;;;;;21.27;5.60;;;18.10;99.90;;;;;;5054132;28;20174;-83
2023/06/26 00:56:29;;;;;;;8.70;5.07;;;;;;;;;;5055113;28;20189;-83
2023/06/26 00:58:54;;;;;;;10.27;6.13;;;18.10;99.90;;;;;;5062526;28;20204;-83
2023/06/26 01:01:21;;;;;;;9.70;5.13;;;18.00;99.90;;;;;;5065067;28;20442;-84
2023/06/26 01:03:52;;;;;;;9.53;6.57;;;17.80;99.90;;;;;;5065665;28;20192;-84
2023/06/26 01:06:21;;;;;;;11.77;6.03;;;17.50;99.90;;;;;;5050852;28;20451;-86
2023/06/26 01:08:47;;;;;;;8.27;5.00;;;17.50;99.90;;;;;;5056168;28;20455;-85
2023/06/26 01:11:13;;;;;;;10.03;5.30;;;20.30;99.90;;;;;;5070787;28;20416;-82
2023/06/26 01:13:40;;;;;;;7.87;5.50;;;17.30;99.90;;;;;;5051880;28;20412;-85
2023/06/26 01:16:07;;;;;;;6.40;5.80;;;;;;;;;;5050913;28;20871;-82
2023/06/26 01:18:35;;;;;;;10.50;6.13;;;17.50;99.90;;;;;;5052756;28;20853;-83
2023/06/26 01:21:02;;;;;;;8.23;5.27;;;17.50;99.90;;;;;;5051320;28;20419;-87
2023/06/26 01:23:47;;;;;;;12.50;6.00;;;17.50;99.90;;;;;;5060833;28;20431;-85
2023/06/26 01:26:21;;;;;;;10.60;6.13;;;17.50;99.90;;;;;;5044852;28;20484;-81
2023/06/26 01:28:48;;;;;;;11.00;6.67;;;17.60;99.90;;;;;;5045832;28;20474;-82
2023/06/26 01:31:15;;;;;;;9.53;5.80;;;17.50;99.90;;;;;;5057764;28;20523;-81
2023/06/26 01:33:41;;;;;;;12.20;6.50;;;17.80;99.90;;;;;;5045911;28;21112;-81
2023/06/26 01:36:07;;;;;;;11.10;5.70;;;17.30;99.90;;;;;;5055418;28;20538;-83
2023/06/26 01:38:34;;;;;;;10.87;7.23;;;17.10;99.90;;;;;;5040428;28;20463;-84
2023/06/26 01:41:00;;;;;;;9.07;5.67;;;17.00;99.90;;;;;;5048886;28;20606;-84
2023/06/26 01:43:34;;;;;;;11.77;6.47;;;16.90;99.90;;;;;;5049726;28;20436;-83
2023/06/26 01:46:05;;;;;;;9.13;5.50;;;16.90;99.90;;;;;;5044895;28;20431;-85
2023/06/26 01:48:38;;;;;;;12.00;6.80;;;16.90;99.90;;;;;;5043021;28;20495;-84
2023/06/26 01:51:05;;;;;;;9.67;6.27;;;16.80;99.90;;;;;;5049341;28;20439;-85
2023/06/26 01:53:38;;;;;;;9.73;6.10;;;16.70;99.90;;;;;;5043665;28;20424;-86
2023/06/26 01:56:12;;;;;;;9.30;5.93;;;16.60;99.90;;;;;;5061830;28;20456;-85
2023/06/26 01:58:44;;;;;;;8.90;5.60;;;17.20;99.90;;;;;;5053605;28;20415;-89
2023/06/26 02:01:10;;;;;;;6.40;4.83;;;16.50;99.90;;;;;;5055199;28;20396;-86
2023/06/26 02:03:35;;;;;;;11.20;7.30;;;16.50;99.90;;;;;;5055503;28;20418;-85
2023/06/26 02:06:01;;;;;;;9.90;6.20;;;16.40;99.90;;;;;;5055373;28;20180;-86
2023/06/26 02:08:27;;;;;;;9.40;6.37;;;16.40;99.90;;;;;;5052139;28;20186;-87
2023/06/26 02:10:52;;;;;;;10.03;6.77;;;16.40;99.90;;;;;;5058517;28;20187;-85
2023/06/26 02:13:18;;;;;;;6.90;5.27;;;16.40;99.90;;;;;;5052278;28;20200;-86
2023/06/26 02:15:43;;;;;;;10.73;6.30;;;16.50;99.90;;;;;;5067695;28;20281;-86
2023/06/26 02:18:09;;;;;;;11.50;6.67;;;16.50;99.90;;;;;;5052673;28;20192;-85
2023/06/26 02:20:34;;;;;;;8.90;5.80;;;16.50;99.90;;;;;;5052466;28;20192;-85
2023/06/26 02:23:00;;;;;;;8.47;5.77;;;16.50;99.90;;;;;;5054816;28;20272;-87
2023/06/26 02:25:25;;;;;;;10.47;6.73;;;16.50;99.90;;;;;;5044778;28;20181;-85
2023/06/26 02:27:51;;;;;;;10.63;6.53;;;;;;;;;;5051959;28;20202;-85
2023/06/26 02:30:17;;;;;;;8.60;6.20;;;16.30;99.90;;;;;;5053174;28;20320;-85
2023/06/26 02:32:43;;;;;;;10.27;6.13;;;;;;;;;;5052134;28;20487;-85
2023/06/26 02:35:08;;;;;;;10.63;6.37;;;15.90;99.90;;;;;;5037372;28;20214;-85
2023/06/26 02:37:34;;;;;;;14.10;6.60;;;;;;;;;;5044548;28;20466;-85
2023/06/26 02:40:00;;;;;;;9.87;6.20;;;15.80;99.90;;;;;;5054975;28;20241;-85
2023/06/26 02:42:26;;;;;;;10.07;6.60;;;;;;;;;;5055503;28;20444;-84
2023/06/26 02:44:52;;;;;;;11.37;6.93;;;;;;;;;;5056026;28;20714;-86
2023/06/26 02:47:17;;;;;;;13.00;7.63;;;15.60;99.90;;;;;;5054804;28;20925;-88
2023/06/26 02:49:43;;;;;;;10.73;6.47;;;15.60;99.90;;;;;;5059055;28;20446;-88
2023/06/26 02:52:09;;;;;;;10.80;6.10;;;;;;;;;;5062457;28;20203;-84
2023/06/26 02:54:34;;;;;;;11.03;7.33;;;15.50;99.90;;;;;;5071471;28;20192;-84
2023/06/26 02:57:00;;;;;;;13.23;6.07;;;15.60;99.90;;;;;;5055583;28;20510;-86
2023/06/26 02:59:26;;;;;;;12.47;8.13;;;15.60;99.90;;;;;;5056529;28;20193;-85
2023/06/26 03:01:52;;;;;;;10.47;7.13;;;;;;;;;;5044499;28;20275;-83
2023/06/26 03:04:18;;;;;;;9.50;5.43;;;;;;;;;;5037740;28;20190;-84
2023/06/26 03:06:44;;;;;;;8.27;5.43;;;15.60;99.90;;;;;;5038750;28;20441;-86
2023/06/26 03:09:09;;;;;;;12.50;6.83;;;15.60;99.90;;;;;;5039282;28;20559;-85
2023/06/26 03:11:35;;;;;;;11.97;6.80;;;15.70;99.90;;;;;;5040020;28;20432;-83
2023/06/26 03:14:00;;;;;;;11.67;6.90;;;15.70;99.90;;;;;;5041783;28;20643;-83
2023/06/26 03:16:26;;;;;;;12.90;6.70;;;15.70;99.90;;;;;;5039090;28;20197;-86
2023/06/26 03:18:52;;;;;;;9.43;6.60;;;15.70;99.90;;;;;;5051632;28;20181;-84
2023/06/26 03:21:18;;;;;;;9.30;6.23;;;15.80;99.90;;;;;;5058234;28;20192;-87
2023/06/26 03:23:57;;;;;;;9.80;6.20;;;15.80;99.90;;;;;;5053103;28;20447;-86
2023/06/26 03:26:27;;;;;;;11.83;6.40;;;15.90;99.90;;;;;;5042991;28;20208;-85
2023/06/26 03:28:53;;;;;;;10.07;6.67;;;16.00;99.90;;;;;;5049036;28;20532;-85
2023/06/26 03:31:19;;;;;;;11.37;6.70;;;16.00;99.90;;;;;;5049281;28;20516;-87
2023/06/26 03:33:44;;;;;;;9.57;6.73;;;16.10;99.90;;;;;;5040184;28;20530;-82
2023/06/26 03:36:09;;;;;;;12.97;6.33;;;16.10;99.90;;;;;;5059271;28;20593;-85
2023/06/26 03:38:35;;;;;;;10.70;6.73;;;16.10;99.90;;;;;;5046366;28;20243;-86
2023/06/26 03:41:01;;;;;;;14.47;6.37;;;16.10;99.90;;;;;;5060618;28;20180;-87
2023/06/26 03:43:26;;;;;;;9.83;6.40;;;16.20;99.90;;;;;;5056025;28;20169;-86
2023/06/26 03:45:52;;;;;;;11.83;6.63;;;16.40;99.90;;;;;;5051179;28;20189;-87
2023/06/26 03:48:17;;;;;;;8.90;5.90;;;16.40;99.90;;;;;;5043315;28;20158;-87
2023/06/26 03:50:43;;;;;;;9.17;5.50;;;16.50;99.90;;;;;;5054237;28;20734;-88
2023/06/26 03:53:09;;;;;;;10.50;5.77;;;16.50;99.90;;;;;;5053587;28;20205;-89
2023/06/26 03:55:35;;;;;;;10.40;5.40;;;;;;;;;;5047295;28;20444;-85
2023/06/26 03:58:01;;;;;;;10.67;6.43;;;;;;;;;;5048369;28;20235;-87
2023/06/26 04:00:26;;;;;;;9.43;6.07;;;16.60;99.90;;;;;;5064874;28;21099;-87
2023/06/26 04:02:52;;;;;;;11.33;7.10;;;16.70;99.90;;;;;;5055924;28;21145;-85
2023/06/26 04:05:18;;;;;;;11.63;6.50;;;16.80;99.90;;;;;;5055893;28;20593;-87
2023/06/26 04:07:58;;;;;;;9.83;6.33;;;16.90;99.90;;;;;;5050039;28;20216;-87
2023/06/26 04:10:24;;;;;;;8.73;5.93;;;;;;;;;;5052182;28;20201;-86
2023/06/26 04:12:53;;;;;;;12.27;7.13;;;17.10;99.90;;;;;;5058573;28;21353;-85
2023/06/26 04:15:19;;;;;;;10.43;5.70;;;;;;;;;;5041108;28;20435;-84
2023/06/26 04:17:44;;;;;;;11.70;5.53;;;17.50;99.90;;;;;;5059030;28;20766;-83
2023/06/26 04:20:11;;;;;;;11.53;5.73;;;;;;;;;;5046035;28;20956;-84
2023/06/26 04:22:41;;;;;;;9.10;6.10;;;22.30;99.90;;;;;;5055062;28;20186;-87
2023/06/26 04:25:08;;;;;;;9.47;6.17;;;22.10;99.90;;;;;;5045258;28;20464;-86
2023/06/26 04:27:34;;;;;;;9.43;5.50;;;;;;;;;;5044596;28;21221;-83
2023/06/26 04:30:00;;;;;;;13.73;8.37;;;;;;;;;;5059508;28;20447;-87
2023/06/26 04:32:25;;;;;;;9.03;5.90;;;28.10;99.90;;;;;;5054387;28;20941;-86
2023/06/26 04:34:51;;;;;;;10.27;6.20;;;;;;;;;;5039086;28;20540;-85
2023/06/26 04:37:18;;;;;;;8.80;6.53;;;31.00;94.80;;;;;;5041909;28;20201;-85
2023/06/26 04:39:44;;;;;;;8.43;7.10;;;;;;;;;;5041887;28;20442;-86
2023/06/26 04:42:11;;;;;;;8.37;6.10;;;;;;;;;;5044287;28;20444;-84
2023/06/26 04:44:37;;;;;;;11.20;7.33;;;;;;;;;;5047596;28;20847;-84
2023/06/26 04:47:04;;;;;;;9.53;7.07;;;;;;;;;;5056093;28;20471;-86
2023/06/26 04:49:30;;;;;;;9.03;7.40;;;;;;;;;;5044049;28;20522;-85
2023/06/26 04:51:56;;;;;;;9.70;7.00;;;35.30;58.00;;;;;;5048706;28;20450;-87
2023/06/26 04:54:23;;;;;;;10.60;8.40;;;36.00;55.10;;;;;;5045875;28;20449;-85
2023/06/26 04:56:49;;;;;;;9.20;7.20;;;;;;;;;;5059402;28;20461;-85
2023/06/26 04:59:15;;;;;;;10.83;8.40;;;;;;;;;;5059924;28;20522;-84
2023/06/26 05:01:41;;;;;;;9.93;8.70;;;;;;;;;;5058419;28;21006;-87
2023/06/26 05:04:15;;;;;;;8.93;8.03;;;36.80;61.60;;;;;;5060419;28;20453;-84
2023/06/26 05:06:41;;;;;;;12.27;9.40;;;37.50;59.60;;;;;;5063412;28;20546;-85
2023/06/26 05:09:08;;;;;;;10.30;8.83;;;37.50;47.70;;;;;;5049755;28;20461;-87
2023/06/26 05:11:34;;;;;;;9.80;8.90;;;;;;;;;;5049214;28;20183;-84
2023/06/26 05:14:02;;;;;;;12.13;10.10;;;38.70;50.70;;;;;;5048712;28;20986;-86
2023/06/26 05:16:27;;;;;;;11.20;9.63;;;;;;;;;;5040620;28;20460;-85
2023/06/26 05:18:54;;;;;;;9.93;8.93;;;38.70;50.20;;;;;;5056541;28;20416;-88
2023/06/26 05:21:20;;;;;;;11.53;9.73;;;;;;;;;;5061107;28;20683;-87
2023/06/26 05:23:47;;;;;;;10.70;9.40;;;38.30;43.30;;;;;;5058880;28;20450;-85
2023/06/26 05:26:22;;;;;;;10.60;9.60;;;39.40;43.10;;;;;;5045440;28;20461;-87
2023/06/26 05:28:48;;;;;;;10.57;9.57;;;;;;;;;;5041120;28;20454;-84
2023/06/26 05:31:15;;;;;;;10.30;9.33;;;40.30;41.50;;;;;;5042746;28;20434;-86
2023/06/26 05:33:44;;;;;;;11.60;10.60;;;41.60;40.40;;;;;;5055714;28;21264;-89
2023/06/26 05:36:10;;;;;;;12.87;11.77;;;;;;;;;;5045601;28;20443;-90
2023/06/26 05:38:38;;;;;;;11.90;10.70;;;43.50;40.00;;;;;;5061160;28;20971;-86
2023/06/26 05:41:04;;;;;;;12.00;10.90;;;;;;;;;;5049300;28;20435;-89
2023/06/26 05:43:30;;;;;;;11.40;10.50;;;;;;;;;;5047774;28;20423;-86
2023/06/26 05:45:57;;;;;;;13.50;12.30;;;45.50;47.70;;;;;;5065436;28;20420;-86
2023/06/26 05:48:23;;;;;;;11.93;10.83;;;;;;;;;;5048358;28;20820;-85
2023/06/26 05:50:50;;;;;;;12.07;10.97;;;;;;;;;;5059879;28;20451;-86
2023/06/26 05:53:16;;;;;;;13.60;12.50;;;43.10;34.60;;;;;;5064768;28;20860;-84
2023/06/26 05:55:43;;;;;;;13.33;12.20;;;;;;;;;;5059861;28;20537;-84
2023/06/26 05:58:10;;;;;;;12.50;11.50;;;43.40;33.80;;;;;;5064816;28;20462;-87
2023/06/26 06:00:36;;;;;;;11.73;10.83;;;;;;;;;;5046331;28;20500;-86
2023/06/26 06:03:02;;;;;;;12.43;11.20;;;45.20;33.30;;;;;;5046663;28;20866;-86
2023/06/26 06:05:28;;;;;;;13.03;11.83;;;;;;;;;;5050370;28;20434;-85
2023/06/26 06:07:54;;;;;;;13.43;12.50;;;;;;;;;;5063694;28;20448;-86
2023/06/26 06:10:20;;;;;;;13.90;12.90;;;;;;;;;;5062978;28;20208;-86
2023/06/26 06:12:46;;;;;;;13.80;12.80;;;;;;;;;;5064525;28;20661;-86
2023/06/26 06:15:13;;;;;;;15.43;14.23;;;45.90;29.90;;;;;;5048405;28;20419;-86
2023/06/26 06:17:39;;;;;;;14.10;13.10;;;;;;;;;;5046068;28;20469;-87
2023/06/26 06:20:06;;;;;;;14.30;13.10;;;;;;;;;;5059400;28;20444;-89
2023/06/26 06:22:32;;;;;;;14.90;13.63;;;;;;;;;;5061933;28;20709;-89
2023/06/26 06:24:58;;;;;;;15.00;14.00;;;;;;;;;;5062701;28;20858;-86
2023/06/26 06:27:24;;;;;;;15.70;14.50;;;;;;;;;;5048554;28;20591;-90
2023/06/26 06:29:50;;;;;;;15.30;14.20;;;;;;;;;;5060559;28;20475;-88
2023/06/26 06:32:16;;;;;;;14.60;13.30;;;;;;;;;;5065300;28;20459;-86
2023/06/26 06:34:42;;;;;;;14.63;13.40;;;;;;;;;;5061917;28;20185;-88
2023/06/26 06:37:08;;;;;;;14.97;13.77;;;;;;;;;;5046628;28;20230;-87
2023/06/26 06:39:34;;;;;;;15.30;13.83;;;45.60;39.20;;;;;;5044210;28;20436;-88
2023/06/26 06:42:00;;;;;;;14.60;13.37;;;;;;;;;;5051782;28;20816;-89
2023/06/26 06:44:26;;;;;;;13.80;12.80;;;;;;;;;;5063447;28;20440;-85
2023/06/26 06:46:52;;;;;;;16.80;15.60;;;;;;;;;;5046495;28;20342;-85
2023/06/26 06:49:18;;;;;;;13.50;12.60;;;45.70;29.00;;;;;;5046042;28;20464;-89
2023/06/26 06:51:44;;;;;;;15.40;14.10;;;;;;;;;;5050309;28;20191;-87
2023/06/26 06:54:10;;;;;;;15.17;14.00;;;;;;;;;;5049019;28;20789;-85
2023/06/26 06:56:36;;;;;;;14.40;13.40;;;;;;;;;;5061671;28;20482;-87
2023/06/26 06:59:02;;;;;;;14.03;13.03;;;;;;;;;;5059892;28;20203;-85
2023/06/26 07:01:28;;;;;;;14.50;13.20;;;46.60;25.80;;;;;;5058061;28;20435;-86
2023/06/26 07:03:54;;;;;;;14.50;13.30;;;;;;;;;;5042428;28;20172;-89
2023/06/26 07:06:20;;;;;;;13.37;12.47;;;;;;;;;;5059752;28;20454;-87
2023/06/26 07:08:46;;;;;;;15.70;13.53;;;;;;;;;;5049186;28;20180;-88
2023/06/26 07:11:12;;;;;;;14.40;13.30;;;;;;;;;;5046496;28;20978;-87
2023/06/26 07:13:38;;;;;;;15.20;13.90;;;;;;;;;;5057203;28;20514;-84
2023/06/26 07:16:04;;;;;;;15.33;14.10;;;;;;;;;;5058886;28;20186;-88
2023/06/26 07:18:30;;;;;;;13.87;12.80;;;;;;;;;;5063127;28;20438;-87
2023/06/26 07:20:56;;;;;;;13.00;12.10;;;;;;;;;;5059228;28;20885;-87
2023/06/26 07:23:22;;;;;;;14.27;12.97;;;;;;;;;;5061339;28;20192;-85
2023/06/26 07:25:48;;;;;;;13.47;12.43;;;;;;;;;;5058288;28;20185;-85
2023/06/26 07:28:13;;;;;;;13.67;12.57;;;43.90;39.50;;;;;;5052088;28;20506;-86
2023/06/26 07:30:39;;;;;;;12.40;11.33;;;;;;;;;;5049363;28;20868;-81
2023/06/26 07:33:05;;;;;;;13.50;12.43;;;;;;;;;;5060390;28;20180;-86
2023/06/26 07:35:31;;;;;;;13.40;12.50;;;;;;;;;;5063250;28;20527;-83
2023/06/26 07:37:57;;;;;;;14.10;13.10;;;;;;;;;;5061356;28;20529;-86
2023/06/26 07:40:23;;;;;;;15.23;13.93;;;;;;;;;;5063848;28;20197;-86
2023/06/26 07:42:50;;;;;;;14.50;13.43;;;;;;;;;;5057193;28;20807;-86
2023/06/26 07:45:16;;;;;;;14.33;13.33;;;;;;;;;;5047896;28;20443;-87
2023/06/26 07:47:42;;;;;;;14.90;13.50;;;;;;;;;;5061275;28;20491;-84
2023/06/26 07:50:08;;;;;;;14.20;13.23;;;;;;;;;;5041271;28;20823;-85
2023/06/26 07:52:34;;;;;;;13.87;12.90;;;;;;;;;;5041500;28;20424;-86
2023/06/26 07:55:00;;;;;;;14.30;13.30;;;;;;;;;;5041920;28;20423;-84
2023/06/26 07:57:26;;;;;;;14.67;13.63;;;;;;;;;;5060614;28;20458;-88
2023/06/26 07:59:52;;;;;;;14.03;13.10;;;;;;;;;;5057009;28;20199;-84
2023/06/26 08:02:18;;;;;;;13.63;12.73;;;;;;;;;;5046235;28;20188;-87
2023/06/26 08:04:44;;;;;;;14.20;13.20;;;;;;;;;;5055930;28;20273;-84
2023/06/26 08:07:10;;;;;;;13.97;12.97;;;;;;;;;;5042598;28;20861;-85
2023/06/26 08:09:36;;;;;;;12.93;12.03;;;;;;;;;;5043723;28;20466;-87
2023/06/26 08:12:02;;;;;;;12.20;11.40;;;;;;;;;;5058124;28;20443;-85
2023/06/26 08:14:28;;;;;;;12.13;11.33;;;;;;;;;;5057656;28;20583;-86
2023/06/26 08:16:54;;;;;;;13.37;12.47;;;;;;;;;;5055120;28;20454;-88
2023/06/26 08:19:20;;;;;;;11.03;10.33;;;;;;;;;;5062209;28;20962;-86
2023/06/26 08:21:46;;;;;;;10.90;10.20;;;39.00;30.80;;;;;;5058526;28;20466;-86
2023/06/26 08:24:13;;;;;;;13.13;10.93;;;38.30;31.70;;;;;;5059652;28;20432;-85
2023/06/26 08:26:39;;;;;;;11.47;10.77;;;38.20;32.20;;;;;;5044287;28;21087;-88
2023/06/26 08:29:07;;;;;;;10.90;9.90;;;;;;;;;;5049309;28;20475;-83
2023/06/26 08:31:34;;;;;;;11.63;10.83;;;35.80;36.10;;;;;;5043609;28;20517;-82
2023/06/26 08:34:00;;;;;;;10.93;10.03;;;34.70;38.80;;;;;;5041404;28;20435;-83
2023/06/26 08:36:26;;;;;;;11.00;10.20;;;35.10;39.60;;;;;;5044025;28;20489;-84
2023/06/26 08:38:53;;;;;;;10.13;9.33;;;34.80;38.90;;;;;;5044767;28;20474;-82
2023/06/26 08:41:18;;;;;;;9.77;9.13;;;33.90;39.00;;;;;;5048284;28;20182;-85
2023/06/26 08:43:44;;;;;;;9.63;8.83;;;;;;;;;;5043317;28;20434;-84
2023/06/26 08:46:10;;;;;;;9.37;8.30;;;;;;;;;;5062390;28;20262;-86
2023/06/26 08:48:36;;;;;;;10.40;9.60;;;;;;;;;;5062177;28;20431;-87
2023/06/26 08:51:11;;;;;;;8.83;7.93;;;34.70;39.80;;;;;;5046287;28;20470;-86
2023/06/26 08:53:42;;;;;;;8.77;8.20;;;35.30;40.40;;;;;;5052981;28;20437;-85
2023/06/26 08:56:09;;;;;;;8.80;8.00;;;34.80;37.20;;;;;;5044318;28;20479;-86
2023/06/26 08:58:37;;;;;;;9.37;8.77;;;34.60;40.10;;;;;;5043836;28;20528;-83
2023/06/26 09:01:04;;;;;;;8.90;8.20;;;34.80;40.80;;;;;;5047813;28;20952;-86
2023/06/26 09:03:31;;;;;;;8.43;7.60;;;34.10;40.30;;;;;;5041622;28;20449;-83
2023/06/26 09:05:57;;;;;;;7.57;6.97;;;32.70;42.20;;;;;;5044437;28;20436;-86
2023/06/26 09:08:22;;;;;;;8.47;7.73;;;;;;;;;;5046189;28;20505;-85
2023/06/26 09:10:48;;;;;;;9.23;8.30;;;;;;;;;;5061926;28;20295;-84
2023/06/26 09:13:14;;;;;;;9.67;8.20;;;32.20;43.60;;;;;;5059168;28;20763;-85
2023/06/26 09:15:44;;;;;;;8.87;8.07;;;33.40;44.10;;;;;;5052764;28;20497;-84
2023/06/26 09:18:10;;;;;;;9.10;8.07;;;;;;;;;;5054143;28;20437;-85
2023/06/26 09:20:36;;;;;;;8.63;8.00;;;33.00;43.20;;;;;;5056156;28;20489;-82
2023/06/26 09:23:02;;;;;;;8.63;7.83;;;32.50;44.10;;;;;;5048388;28;20479;-84
2023/06/26 09:25:28;;;;;;;8.43;7.63;;;31.80;44.70;;;;;;5046352;28;20847;-87
2023/06/26 09:27:55;;;;;;;16.03;8.97;;;32.10;46.40;;;;;;5057724;28;20213;-86
2023/06/26 09:30:21;;;;;;;7.57;6.83;;;;;;;;;;5055583;28;20549;-87
2023/06/26 09:32:47;;;;;;;8.33;7.50;;;;;;;;;;5069948;28;20724;-87
2023/06/26 09:35:13;;;;;;;9.60;8.70;;;31.40;47.70;;;;;;5068391;28;20428;-83
2023/06/26 09:37:40;;;;;;;12.47;7.70;;;31.10;48.40;;;;;;5066813;28;20471;-86
2023/06/26 09:40:06;;;;;;;9.90;8.90;;;31.30;49.20;;;;;;5049513;28;20181;-86
2023/06/26 09:42:32;;;;;;;8.73;7.93;;;31.70;49.60;;;;;;5053605;28;20694;-85
2023/06/26 09:44:58;;;;;;;8.77;7.97;;;;;;;;;;5036239;28;20525;-84
2023/06/26 09:47:24;;;;;;;8.17;7.47;;;;;;;;;;5061999;28;20221;-86
2023/06/26 09:49:51;;;;;;;10.43;7.07;;;31.40;47.20;;;;;;5052365;28;20491;-85
2023/06/26 09:52:17;;;;;;;9.13;8.07;;;30.70;48.60;;;;;;5052909;28;20444;-86
2023/06/26 09:54:46;;;;;;;8.03;7.23;;;30.20;50.50;;;;;;5064703;28;20424;-86
2023/06/26 09:57:13;;;;;;;8.57;7.70;;;30.00;51.50;;;;;;5056753;28;20462;-85
2023/06/26 09:59:42;;;;;;;8.20;7.00;;;30.10;52.10;;;;;;5052374;28;20428;-84
2023/06/26 10:02:08;;;;;;;8.83;7.90;;;29.90;51.60;;;;;;5051690;28;20407;-84
2023/06/26 10:04:36;;;;;;;9.90;6.80;;;29.90;53.20;;;;;;5052375;28;20477;-89
2023/06/26 10:07:04;;;;;;;12.47;7.50;;;29.50;54.60;;;;;;5042874;28;20477;-85
2023/06/26 10:09:30;;;;;;;8.77;7.77;;;29.50;55.20;;;;;;5053046;28;20452;-84
2023/06/26 10:12:06;;;;;;;9.90;6.20;;;28.90;55.70;;;;;;5055308;28;20427;-84
2023/06/26 10:14:36;;;;;;;10.30;7.73;;;29.10;56.90;;;;;;5069149;28;20425;-85
2023/06/26 10:17:06;;;;;;;7.80;7.03;;;29.00;57.40;;;;;;5061635;28;20473;-84
2023/06/26 10:19:33;;;;;;;8.33;6.93;;;29.20;58.60;;;;;;5048344;28;20433;-85
2023/06/26 10:21:59;;;;;;;7.77;7.03;;;28.60;60.00;;;;;;5069155;28;20415;-85
2023/06/26 10:24:28;;;;;;;8.63;6.97;;;29.20;60.70;;;;;;5043205;28;20449;-86
2023/06/26 10:27:05;;;;;;;8.07;7.23;;;29.20;61.40;;;;;;5055786;28;20852;-84
2023/06/26 10:29:32;;;;;;;7.33;6.53;;;29.90;60.50;;;;;;5054410;28;20459;-86
2023/06/26 10:32:00;;;;;;;10.03;9.03;;;31.30;58.70;;;;;;5056437;28;20428;-82
2023/06/26 10:34:25;;;;;;;7.00;6.27;;;31.70;56.10;;;;;;5037697;28;20909;-84
2023/06/26 10:37:04;;;;;;;8.47;7.50;;;30.10;57.00;;;;;;5065314;28;20479;-84
2023/06/26 10:39:49;;;;;;;8.77;7.40;;;29.60;59.10;;;;;;5053439;28;20484;-86
2023/06/26 10:42:16;;;;;;;7.40;6.30;;;;;;;;;;5057283;28;20431;-84
2023/06/26 10:44:46;;;;;;;13.20;6.77;;;29.80;60.00;;;;;;5068589;28;20421;-87
2023/06/26 10:47:31;;;;;;;7.87;6.83;;;28.70;60.90;;;;;;5057406;28;20456;-83
2023/06/26 10:50:16;;;;;;;8.03;6.50;;;28.70;64.90;;;;;;5056136;28;20455;-86
2023/06/26 10:52:42;;;;;;;7.63;6.50;;;;;;;;;;5053326;28;20428;-88
2023/06/26 10:55:10;;;;;;;8.13;7.03;;;29.20;64.60;;;;;;5050930;28;20415;-85
2023/06/26 10:57:36;;;;;;;8.30;6.30;;;29.90;66.00;;;;;;5051053;28;20446;-84
2023/06/26 11:00:14;;;;;;;8.17;6.40;;;29.10;65.10;;;;;;5055815;28;20472;-82
2023/06/26 11:02:53;;;;;;;6.97;6.10;;;29.40;67.20;;;;;;5054216;28;20450;-81
2023/06/26 11:05:29;;;;;;;9.13;6.30;;;29.90;64.40;;;;;;5058751;28;21231;-79
2023/06/26 11:08:09;;;;;;;8.37;6.47;;;29.60;63.60;;;;;;5056701;28;20458;-82
2023/06/26 11:10:59;;;;;;;6.87;6.23;;;29.20;66.50;;;;;;5049684;28;20856;-85
2023/06/26 11:13:26;;;;;;;7.97;6.20;;;29.10;65.60;;;;;;5058015;28;21073;-84
2023/06/26 11:15:51;;;;;;;8.60;6.40;;;29.00;69.10;;;;;;5062157;28;20407;-84
2023/06/26 11:18:17;;;;;;;7.77;6.80;;;28.90;69.70;;;;;;5054187;28;20428;-84
2023/06/26 11:20:43;;;;;;;8.30;5.83;;;28.90;70.20;;;;;;5052804;28;20244;-80
2023/06/26 11:23:09;;;;;;;9.50;6.50;;;28.30;69.80;;;;;;5049761;28;20178;-87
2023/06/26 11:25:36;;;;;;;7.00;6.30;;;;;;;;;;5055187;28;20209;-82
2023/06/26 11:28:04;;;;;;;9.80;6.67;;;29.10;70.40;;;;;;5071693;28;20441;-84
2023/06/26 11:30:29;;;;;;;8.00;6.10;;;29.10;71.10;;;;;;5055529;28;20467;-82
2023/06/26 11:33:06;;;;;;;7.10;6.40;;;28.70;71.80;;;;;;5062151;28;20426;-84
2023/06/26 11:35:32;;;;;;;10.10;7.73;;;28.60;74.40;;;;;;5054715;28;20176;-85
2023/06/26 11:38:00;;;;;;;9.87;6.83;;;29.00;73.10;;;;;;5053794;28;20499;-84
2023/06/26 11:40:27;;;;;;;7.40;6.03;;;;;;;;;;5040184;28;20186;-84
2023/06/26 11:42:53;;;;;;;9.10;7.43;;;29.30;74.30;;;;;;5045965;28;20811;-87
2023/06/26 11:45:20;;;;;;;10.10;6.90;;;29.40;73.30;;;;;;5049973;28;20429;-88
2023/06/26 11:47:45;;;;;;;7.70;6.90;;;29.40;74.10;;;;;;5046747;28;20467;-85
2023/06/26 11:50:19;;;;;;;8.30;7.03;;;28.70;73.50;;;;;;5053705;28;20460;-84
2023/06/26 11:52:45;;;;;;;8.03;7.20;;;28.90;77.00;;;;;;5052596;28;20181;-84
2023/06/26 11:55:11;;;;;;;9.67;7.37;;;28.90;77.70;;;;;;5049642;28;20455;-85
2023/06/26 11:57:37;;;;;;;9.90;7.27;;;;;;;;;;5052597;28;20440;-83
2023/06/26 12:00:16;;;;;;;8.07;6.67;;;29.00;76.60;;;;;;5054829;28;20185;-82
2023/06/26 12:02:42;;;;;;;11.70;7.50;;;29.30;77.40;;;;;;5064600;28;20453;-87
2023/06/26 12:05:08;;;;;;;7.97;6.80;;;29.30;78.20;;;;;;5047701;28;20420;-85
2023/06/26 12:07:36;;;;;;;9.30;7.10;;;;;;;;;;5053088;28;20455;-83
2023/06/26 12:10:02;;;;;;;8.17;6.27;;;;;;;;;;5054321;28;20546;-85
2023/06/26 12:12:28;;;;;;;10.10;6.43;;;29.30;75.20;;;;;;5064393;28;20456;-83
2023/06/26 12:14:54;;;;;;;10.40;6.70;;;29.00;76.40;;;;;;5055047;28;20431;-86
2023/06/26 12:17:24;;;;;;;7.77;6.60;;;28.10;80.80;;;;;;5051219;28;20644;-85
2023/06/26 12:19:50;;;;;;;11.30;9.00;;;;;;;;;;5061984;28;20269;-87
2023/06/26 12:22:17;;;;;;;8.10;7.00;;;28.80;80.30;;;;;;5050796;28;20468;-82
2023/06/26 12:24:44;;;;;;;8.40;6.47;;;28.80;78.30;;;;;;5049690;28;20413;-86
2023/06/26 12:27:12;;;;;;;11.77;6.50;;;28.70;78.50;;;;;;5052935;28;20999;-85
2023/06/26 12:29:40;;;;;;;9.10;7.00;;;29.60;79.90;;;;;;5047452;28;20468;-87
2023/06/26 12:32:10;;;;;;;9.47;7.00;;;28.50;79.60;;;;;;5044281;28;20439;-83
2023/06/26 12:34:37;;;;;;;9.73;7.90;;;28.50;79.20;;;;;;5051575;28;20759;-86
2023/06/26 12:37:08;;;;;;;7.57;6.47;;;28.50;79.30;;;;;;5049390;28;20470;-85
2023/06/26 12:39:51;;;;;;;8.87;6.83;;;28.50;79.40;;;;;;5041959;28;20429;-86
2023/06/26 12:42:23;;;;;;;8.93;6.50;;;28.50;78.80;;;;;;5053150;28;20979;-88
2023/06/26 12:44:49;;;;;;;8.27;6.23;;;28.50;79.60;;;;;;5040332;28;20807;-85
2023/06/26 12:47:16;;;;;;;11.40;7.00;;;28.60;77.50;;;;;;5068588;28;20454;-83
2023/06/26 12:49:44;;;;;;;7.67;6.07;;;29.20;78.70;;;;;;5056464;28;20455;-83
2023/06/26 12:52:14;;;;;;;7.13;6.10;;;29.00;78.70;;;;;;5054879;28;21096;-85
2023/06/26 12:54:43;;;;;;;10.03;5.97;;;29.30;76.70;;;;;;5055412;28;20883;-82
2023/06/26 12:57:09;;;;;;;9.30;5.60;;;;;;;;;;5054508;28;20457;-82
2023/06/26 12:59:36;;;;;;;7.07;6.10;;;28.90;72.90;;;;;;5056771;28;20470;-84
2023/06/26 13:02:02;;;;;;;7.10;5.37;;;28.30;72.90;;;;;;5052204;28;20466;-84
2023/06/26 13:04:28;;;;;;;6.77;4.63;;;28.30;75.00;;;;;;5046605;28;20443;-86
2023/06/26 13:06:55;;;;;;;9.23;5.87;;;28.40;73.70;;;;;;5068895;28;20481;-87
2023/06/26 13:09:21;;;;;;;11.53;5.63;;;29.10;74.90;;;;;;5041016;28;20467;-85
2023/06/26 13:11:47;;;;;;;7.07;5.60;;;;;;;;;;5043892;28;20421;-84
2023/06/26 13:14:13;;;;;;;8.17;5.33;;;;;;;;;;5055170;28;20455;-81